Time;durP1;ratioP1;P1;durP2;ratioP2;P2;SDS_P1;SDS_P2;PMS_P1;PMS_P2;Temp;Humidity;BMP_temperature;BMP_pressure;BME280_temperature;BME280_humidity;BME280_pressure;Samples;Min_cycle;Max_cycle;Signal;HPM_P1;HPM_P2
2021/04/23 00:00:41;;;;;;;5.87;4.33;;;;;;;1.73;78.39;98767.88;5060067;28;20203;-69
2021/04/23 00:03:15;;;;;;;9.30;4.70;;;;;;;1.82;78.60;98763.03;5062815;28;20705;-69
2021/04/23 00:05:43;;;;;;;6.03;5.40;;;;;;;1.61;79.68;98768.53;5061563;28;20207;-70
2021/04/23 00:08:11;;;;;;;8.43;5.33;;;;;;;1.47;81.28;98771.13;5062433;28;20305;-69
2021/04/23 00:10:38;;;;;;;10.07;5.27;;;;;;;1.48;80.73;98776.25;5059282;28;20203;-69
2021/04/23 00:13:06;;;;;;;6.17;5.43;;;;;;;1.36;81.63;98775.19;5061621;28;20211;-69
2021/04/23 00:15:33;;;;;;;6.13;5.20;;;;;;;1.22;82.70;98780.31;5061470;28;20209;-69
2021/04/23 00:18:01;;;;;;;5.93;4.63;;;;;;;1.28;82.44;98775.59;5061502;28;20246;-71
2021/04/23 00:20:29;;;;;;;9.77;6.47;;;;;;;1.24;82.07;98778.47;5061982;28;20198;-69
2021/04/23 00:22:57;;;;;;;6.67;4.97;;;;;;;1.21;82.69;98781.25;5062421;28;20553;-70
2021/04/23 00:25:25;;;;;;;6.17;4.93;;;;;;;1.07;83.61;98784.63;5061074;28;20202;-70
2021/04/23 00:27:59;;;;;;;6.43;4.63;;;;;;;1.01;84.54;98785.81;5058979;28;20210;-70
2021/04/23 00:30:28;;;;;;;5.87;4.33;;;;;;;0.94;84.59;98785.28;5060156;28;20211;-69
2021/04/23 00:32:55;;;;;;;5.63;4.63;;;;;;;0.98;84.57;98785.97;5062724;28;20203;-70
2021/04/23 00:35:23;;;;;;;6.10;4.23;;;;;;;0.99;84.43;98785.06;5061376;28;20215;-70
2021/04/23 00:37:51;;;;;;;8.50;5.27;;;;;;;0.89;85.56;98784.72;5061190;28;20219;-70
2021/04/23 00:40:21;;;;;;;6.00;5.03;;;;;;;0.84;86.00;98789.34;5062115;28;20203;-69
2021/04/23 00:42:48;;;;;;;5.50;4.93;;;;;;;0.90;84.42;98782.94;5061254;28;20778;-70
2021/04/23 00:45:19;;;;;;;9.73;5.10;;;;;;;0.85;83.46;98773.59;5061100;28;20202;-69
2021/04/23 00:47:47;;;;;;;8.17;4.70;;;;;;;0.74;84.37;98785.50;5058754;28;20202;-70
2021/04/23 00:50:25;;;;;;;10.47;5.17;;;;;;;0.79;84.25;98781.75;5061953;28;20687;-69
2021/04/23 00:52:52;;;;;;;6.33;5.43;;;;;;;0.82;84.28;98781.56;5059321;28;20559;-69
2021/04/23 00:55:20;;;;;;;5.43;4.93;;;;;;;0.63;85.16;98780.91;5061841;28;20773;-69
2021/04/23 00:57:47;;;;;;;8.43;5.27;;;;;;;0.62;85.65;98781.81;5061753;28;20246;-69
2021/04/23 01:00:15;;;;;;;6.53;4.90;;;;;;;0.46;85.97;98790.44;5058297;28;20211;-70
2021/04/23 01:02:42;;;;;;;8.23;5.20;;;;;;;0.55;86.12;98783.91;5057368;28;20766;-70
2021/04/23 01:05:10;;;;;;;6.10;4.63;;;;;;;0.55;85.63;98789.13;5061088;28;20203;-70
2021/04/23 01:07:42;;;;;;;7.67;5.37;;;;;;;0.39;86.49;98791.69;5056943;28;20234;-69
2021/04/23 01:10:10;;;;;;;8.40;5.60;;;;;;;0.35;87.16;98788.38;5062325;28;20202;-70
2021/04/23 01:12:38;;;;;;;9.57;6.33;;;;;;;0.35;87.33;98791.00;5058628;28;20234;-69
2021/04/23 01:15:06;;;;;;;6.13;5.57;;;;;;;0.39;86.33;98789.06;5060213;28;20204;-70
2021/04/23 01:17:33;;;;;;;7.50;5.47;;;;;;;0.41;86.46;98789.84;5060551;28;20226;-69
2021/04/23 01:20:00;;;;;;;7.77;5.80;;;;;;;0.48;85.86;98792.97;5058320;28;20199;-70
2021/04/23 01:22:28;;;;;;;6.33;5.73;;;;;;;0.34;86.95;98794.53;5060440;28;20515;-70
2021/04/23 01:24:55;;;;;;;5.97;4.93;;;;;;;0.14;87.65;98792.94;5059377;28;20593;-70
2021/04/23 01:27:22;;;;;;;10.27;5.80;;;;;;;0.34;86.60;98788.47;5060293;28;20198;-69
2021/04/23 01:29:49;;;;;;;8.20;5.97;;;;;;;0.18;87.44;98781.44;5058347;28;20221;-70
2021/04/23 01:32:16;;;;;;;6.00;5.50;;;;;;;0.02;87.97;98793.56;5059872;28;20230;-70
2021/04/23 01:34:43;;;;;;;8.80;6.17;;;;;;;0.12;88.43;98793.03;5060432;28;20707;-69
2021/04/23 01:37:13;;;;;;;5.87;5.10;;;;;;;0.18;88.25;98788.41;5058661;28;20203;-70
2021/04/23 01:39:43;;;;;;;6.60;5.90;;;;;;;0.07;89.72;98791.56;5057138;28;20200;-70
2021/04/23 01:42:12;;;;;;;11.43;5.73;;;;;;;-0.07;89.96;98782.69;5061532;28;20222;-70
2021/04/23 01:44:39;;;;;;;6.23;5.57;;;;;;;-0.06;90.68;98791.34;5059083;28;20214;-69
2021/04/23 01:47:07;;;;;;;6.70;5.07;;;;;;;-0.04;90.96;98797.31;5057575;28;20207;-70
2021/04/23 01:49:34;;;;;;;8.07;5.63;;;;;;;-0.03;90.35;98789.44;5061055;28;20211;-70
2021/04/23 01:52:05;;;;;;;6.70;6.00;;;;;;;-0.07;90.58;98790.50;5059363;28;20223;-69
2021/04/23 01:54:32;;;;;;;6.67;5.73;;;;;;;0.06;89.11;98793.34;5059466;28;20202;-70
2021/04/23 01:57:00;;;;;;;7.70;5.50;;;;;;;-0.04;89.14;98792.97;5061049;28;20222;-70
2021/04/23 01:59:28;;;;;;;8.80;5.93;;;;;;;-0.16;89.62;98799.63;5061125;28;20227;-69
2021/04/23 02:01:56;;;;;;;8.97;4.97;;;;;;;-0.04;90.14;98803.38;5059955;28;20607;-69
2021/04/23 02:04:24;;;;;;;10.00;5.87;;;;;;;-0.09;89.84;98809.75;5058535;28;20722;-71
2021/04/23 02:06:52;;;;;;;5.93;5.10;;;;;;;-0.19;90.93;98809.34;5060642;28;20246;-70
2021/04/23 02:09:19;;;;;;;6.60;5.00;;;;;;;-0.23;90.52;98811.28;5060323;28;20199;-70
2021/04/23 02:11:49;;;;;;;9.13;5.50;;;;;;;-0.24;90.95;98806.13;5059311;28;20721;-71
2021/04/23 02:14:17;;;;;;;7.30;5.40;;;;;;;-0.35;91.75;98804.91;5060545;28;20206;-69
2021/04/23 02:16:45;;;;;;;14.67;5.23;;;;;;;-0.33;91.15;98813.47;5056959;28;20710;-69
2021/04/23 02:19:13;;;;;;;8.07;4.83;;;;;;;-0.51;91.97;98801.38;5055704;28;20219;-71
2021/04/23 02:21:41;;;;;;;7.27;5.53;;;;;;;-0.55;92.84;98807.66;5053362;28;20442;-70
2021/04/23 02:24:09;;;;;;;6.53;4.97;;;;;;;-0.67;94.71;98820.31;5061019;28;20587;-69
2021/04/23 02:26:36;;;;;;;9.00;6.23;;;;;;;-0.73;95.34;98824.06;5058426;28;20203;-69
2021/04/23 02:29:05;;;;;;;9.50;6.40;;;;;;;-0.64;95.70;98827.16;5060469;28;20592;-69
2021/04/23 02:31:33;;;;;;;6.03;5.53;;;;;;;-0.66;94.51;98822.00;5058270;28;20226;-70
2021/04/23 02:34:02;;;;;;;10.30;5.43;;;;;;;-0.79;95.71;98821.72;5059652;28;20205;-69
2021/04/23 02:36:30;;;;;;;7.77;5.33;;;;;;;-0.71;94.82;98823.97;5060686;28;20210;-69
2021/04/23 02:38:57;;;;;;;7.30;5.63;;;;;;;-0.76;96.20;98825.94;5060619;28;20234;-70
2021/04/23 02:41:24;;;;;;;9.50;5.70;;;;;;;-0.80;95.39;98827.84;5064898;28;20314;-70
2021/04/23 02:43:53;;;;;;;9.43;5.67;;;;;;;-0.83;96.36;98821.97;5061419;28;20209;-69
2021/04/23 02:46:22;;;;;;;7.40;6.27;;;;;;;-0.93;97.81;98832.81;5057671;28;20207;-70
2021/04/23 02:48:50;;;;;;;5.37;4.87;;;;;;;-1.02;98.27;98823.66;5062740;28;20211;-70
2021/04/23 02:51:24;;;;;;;7.00;5.10;;;;;;;-0.93;96.61;98827.59;5062164;28;20241;-70
2021/04/23 02:53:52;;;;;;;9.37;5.70;;;;;;;-1.03;96.88;98827.16;5060601;28;20199;-69
2021/04/23 02:56:20;;;;;;;9.53;5.97;;;;;;;-0.96;97.15;98827.72;5061977;28;20614;-69
2021/04/23 02:58:47;;;;;;;7.00;5.70;;;;;;;-0.90;95.88;98831.78;5063293;28;20234;-70
2021/04/23 03:01:18;;;;;;;7.17;5.90;;;;;;;-0.96;96.01;98837.28;5060489;28;20238;-70
2021/04/23 03:03:45;;;;;;;6.83;5.57;;;;;;;-0.93;96.42;98834.53;5062047;28;20206;-70
2021/04/23 03:06:13;;;;;;;7.40;5.77;;;;;;;-1.00;96.48;98838.34;5062288;28;20202;-70
2021/04/23 03:08:41;;;;;;;7.17;5.57;;;;;;;-0.97;95.10;98838.22;5060795;28;20401;-70
2021/04/23 03:11:13;;;;;;;7.03;5.70;;;;;;;-1.10;95.07;98843.97;5061191;28;20262;-70
2021/04/23 03:13:42;;;;;;;7.63;5.27;;;;;;;-1.18;95.29;98836.50;5053068;28;20239;-69
2021/04/23 03:16:09;;;;;;;6.93;5.37;;;;;;;-1.18;96.02;98846.06;5060377;28;20489;-70
2021/04/23 03:18:38;;;;;;;6.60;5.93;;;;;;;-1.12;95.93;98844.94;5061716;28;20223;-69
2021/04/23 03:21:07;;;;;;;8.77;5.37;;;;;;;-1.33;97.13;98844.97;5063814;28;20223;-70
2021/04/23 03:23:35;;;;;;;6.47;5.60;;;;;;;-1.39;98.14;98843.50;5060801;28;20453;-70
2021/04/23 03:26:06;;;;;;;8.30;5.70;;;;;;;-1.42;98.60;98848.00;5059769;28;20205;-71
2021/04/23 03:28:33;;;;;;;8.47;5.33;;;;;;;-1.39;98.21;98846.13;5061446;28;20207;-71
2021/04/23 03:31:04;;;;;;;8.40;5.43;;;;;;;-1.38;99.13;98840.00;5060927;28;20318;-70
2021/04/23 03:33:31;;;;;;;6.27;5.40;;;;;;;-1.45;98.64;98841.19;5062083;28;20752;-71
2021/04/23 03:36:00;;;;;;;6.73;5.40;;;;;;;-1.40;98.75;98847.03;5062157;28;20202;-72
2021/04/23 03:38:29;;;;;;;10.40;5.43;;;;;;;-1.37;98.19;98846.88;5061767;28;20227;-71
2021/04/23 03:41:03;;;;;;;6.53;5.90;;;;;;;-1.48;98.59;98852.56;5062465;28;20670;-71
2021/04/23 03:43:30;;;;;;;13.40;6.00;;;;;;;-1.44;99.60;98853.28;5063118;28;20228;-72
2021/04/23 03:45:58;;;;;;;6.70;6.03;;;;;;;-1.65;98.99;98848.06;5061572;28;20209;-72
2021/04/23 03:48:25;;;;;;;6.47;5.87;;;;;;;-1.67;99.95;98854.28;5061721;28;20203;-71
2021/04/23 03:50:52;;;;;;;7.80;5.67;;;;;;;-1.72;100.00;98849.25;5058911;28;20218;-72
2021/04/23 03:53:20;;;;;;;6.57;5.83;;;;;;;-1.62;100.00;98850.53;5062428;28;20211;-71
2021/04/23 03:55:49;;;;;;;7.47;5.53;;;;;;;-1.62;99.00;98841.91;5061651;28;20206;-71
2021/04/23 03:58:18;;;;;;;6.43;5.57;;;;;;;-1.64;99.44;98847.16;5059996;28;20746;-72
2021/04/23 04:00:47;;;;;;;6.77;5.20;;;;;;;-1.61;99.21;98851.41;5059975;28;20234;-71
2021/04/23 04:03:15;;;;;;;6.40;5.90;;;;;;;-1.58;98.71;98855.59;5059308;28;20705;-71
2021/04/23 04:05:42;;;;;;;9.87;5.63;;;;;;;-1.54;98.52;98862.34;5059708;28;20218;-70
2021/04/23 04:08:10;;;;;;;7.07;5.07;;;;;;;-1.48;98.02;98862.13;5063253;28;20218;-71
2021/04/23 04:10:37;;;;;;;7.63;5.27;;;;;;;-1.57;99.57;98870.28;5064037;28;20218;-71
2021/04/23 04:13:05;;;;;;;7.37;5.20;;;;;;;-1.57;100.00;98868.56;5061463;28;20203;-71
2021/04/23 04:15:34;;;;;;;5.97;4.80;;;;;;;-1.59;100.00;98865.19;5061192;28;20211;-71
2021/04/23 04:18:01;;;;;;;7.67;5.43;;;;;;;-1.67;100.00;98870.69;5059266;28;20228;-72
2021/04/23 04:20:32;;;;;;;12.23;5.83;;;;;;;-1.75;100.00;98872.78;5061723;28;20207;-72
2021/04/23 04:23:04;;;;;;;7.87;4.80;;;;;;;-1.51;100.00;98875.25;5061810;28;20301;-71
2021/04/23 04:25:34;;;;;;;6.83;5.20;;;;;;;-1.51;98.71;98876.09;5060610;28;20214;-72
2021/04/23 04:28:01;;;;;;;5.40;4.93;;;;;;;-1.53;100.00;98877.91;5061976;28;20269;-73
2021/04/23 04:30:28;;;;;;;6.77;5.27;;;;;;;-1.42;100.00;98884.38;5058798;28;20675;-71
2021/04/23 04:32:56;;;;;;;10.10;6.17;;;;;;;-1.47;99.95;98893.25;5061051;28;20498;-73
2021/04/23 04:35:24;;;;;;;5.43;4.93;;;;;;;-1.29;99.68;98895.97;5060573;28;20548;-73
2021/04/23 04:37:51;;;;;;;6.47;5.07;;;;;;;-1.11;98.10;98899.53;5062071;28;20207;-73
2021/04/23 04:40:19;;;;;;;8.57;5.50;;;;;;;-1.29;97.85;98893.38;5062913;28;20206;-71
2021/04/23 04:42:46;;;;;;;10.53;5.30;;;;;;;-1.35;98.60;98891.88;5059982;28;20230;-71
2021/04/23 04:45:16;;;;;;;10.53;6.03;;;;;;;-1.27;97.37;98907.16;5058385;28;20524;-71
2021/04/23 04:47:43;;;;;;;5.90;5.40;;;;;;;-1.39;98.63;98907.66;5060327;28;20222;-71
2021/04/23 04:50:15;;;;;;;8.37;5.07;;;;;;;-1.28;97.91;98915.88;5055713;28;20203;-71
2021/04/23 04:52:42;;;;;;;6.07;5.47;;;;;;;-1.22;98.57;98915.59;5059566;28;20222;-70
2021/04/23 04:55:10;;;;;;;6.27;5.00;;;;;;;-1.23;98.51;98915.66;5060802;28;20674;-71
2021/04/23 04:57:37;;;;;;;7.03;5.23;;;;;;;-1.16;98.49;98922.25;5060860;28;20195;-71
2021/04/23 05:00:07;;;;;;;6.63;5.37;;;;;;;-1.11;98.81;98924.69;5059146;28;20206;-71
2021/04/23 05:02:34;;;;;;;9.27;5.63;;;;;;;-0.99;96.68;98925.91;5058814;28;20223;-70
2021/04/23 05:05:03;;;;;;;7.43;5.57;;;;;;;-1.03;97.52;98936.44;5058239;28;20230;-71
2021/04/23 05:07:31;;;;;;;5.63;5.13;;;;;;;-0.83;95.17;98934.69;5061291;28;20484;-71
2021/04/23 05:09:58;;;;;;;8.60;5.20;;;;;;;-0.81;96.85;98932.03;5054975;28;20203;-70
2021/04/23 05:12:25;;;;;;;5.93;5.43;;;;;;;-0.78;95.37;98942.31;5058902;28;20750;-71
2021/04/23 05:14:52;;;;;;;7.97;5.47;;;;;;;-0.78;96.70;98940.53;5058478;28;20203;-71
2021/04/23 05:17:19;;;;;;;7.33;5.77;;;;;;;-0.65;95.38;98946.03;5059211;28;20225;-71
2021/04/23 05:19:46;;;;;;;8.33;5.60;;;;;;;-0.57;94.29;98947.44;5060631;28;20307;-71
2021/04/23 05:22:14;;;;;;;6.10;5.50;;;;;;;-0.54;93.54;98955.97;5061685;28;20230;-71
2021/04/23 05:24:42;;;;;;;6.90;5.63;;;;;;;-0.51;91.46;98958.44;5058330;28;20301;-71
2021/04/23 05:27:09;;;;;;;9.40;5.20;;;;;;;-0.61;92.49;98960.59;5061493;28;20223;-71
2021/04/23 05:29:36;;;;;;;8.27;5.67;;;;;;;-0.66;93.93;98957.38;5058864;28;20407;-71
2021/04/23 05:32:04;;;;;;;9.17;6.07;;;;;;;-0.47;93.23;98953.94;5058031;28;20718;-71
2021/04/23 05:34:31;;;;;;;8.57;6.13;;;;;;;-0.37;94.15;98962.19;5062281;28;20464;-71
2021/04/23 05:36:59;;;;;;;6.97;6.27;;;;;;;-0.24;92.90;98971.13;5058850;28;20298;-71
2021/04/23 05:39:26;;;;;;;6.27;5.43;;;;;;;-0.15;92.80;98964.63;5060758;28;20266;-70
2021/04/23 05:41:55;;;;;;;7.60;6.73;;;;;;;0.13;90.87;98971.13;5055061;28;20269;-71
2021/04/23 05:44:22;;;;;;;7.70;6.90;;;;;;;0.38;90.19;98962.97;5058974;28;20217;-71
2021/04/23 05:46:49;;;;;;;8.43;5.73;;;;;;;0.35;92.11;98967.47;5058280;28;20213;-71
2021/04/23 05:49:16;;;;;;;7.47;5.50;;;;;;;0.50;91.56;98976.31;5060744;28;20206;-71
2021/04/23 05:51:43;;;;;;;6.83;5.53;;;;;;;0.64;89.27;98967.81;5060473;28;20238;-71
2021/04/23 05:54:10;;;;;;;9.30;5.77;;;;;;;0.79;91.42;98971.41;5059006;28;20203;-71
2021/04/23 05:56:37;;;;;;;7.20;5.93;;;;;;;0.79;90.09;98969.63;5059046;28;20203;-71
2021/04/23 05:59:05;;;;;;;7.83;5.90;;;;;;;0.92;87.56;98974.22;5059861;28;20230;-70
2021/04/23 06:01:32;;;;;;;9.47;6.43;;;;;;;1.06;85.85;98976.97;5059255;28;20222;-72
2021/04/23 06:03:59;;;;;;;8.27;6.27;;;;;;;1.21;84.76;98977.09;5061621;28;20602;-70
2021/04/23 06:06:26;;;;;;;11.57;7.10;;;;;;;1.43;87.12;98975.03;5059731;28;20362;-70
2021/04/23 06:08:53;;;;;;;6.87;5.50;;;;;;;1.59;85.03;98976.81;5061401;28;20206;-69
2021/04/23 06:11:21;;;;;;;11.07;6.73;;;;;;;1.76;84.87;98973.28;5060316;28;20231;-69
2021/04/23 06:13:48;;;;;;;8.50;6.33;;;;;;;2.08;78.67;98975.03;5058625;28;20203;-71
2021/04/23 06:16:16;;;;;;;10.90;7.20;;;;;;;2.01;82.80;98977.19;5062245;28;20594;-71
2021/04/23 06:18:43;;;;;;;7.00;5.47;;;;;;;2.24;79.65;98973.28;5060844;28;20227;-71
2021/04/23 06:21:11;;;;;;;8.43;6.43;;;;;;;2.28;77.42;98985.25;5062616;28;20222;-71
2021/04/23 06:23:38;;;;;;;7.70;5.40;;;;;;;2.31;77.47;98977.22;5059209;28;20207;-70
2021/04/23 06:26:05;;;;;;;6.87;6.07;;;;;;;2.37;78.56;98978.66;5062637;28;20590;-71
2021/04/23 06:28:34;;;;;;;7.23;6.53;;;;;;;2.41;78.42;98974.94;5060747;28;20199;-71
2021/04/23 06:31:01;;;;;;;14.40;7.83;;;;;;;2.73;76.34;98981.84;5061915;28;20561;-71
2021/04/23 06:33:33;;;;;;;10.73;6.60;;;;;;;2.82;75.07;98983.06;5063318;28;20277;-71
2021/04/23 06:36:01;;;;;;;7.07;6.43;;;;;;;3.00;73.64;98979.34;5059642;28;20211;-72
2021/04/23 06:38:28;;;;;;;11.33;7.87;;;;;;;3.02;74.96;98985.34;5058009;28;20230;-72
2021/04/23 06:40:55;;;;;;;7.13;6.20;;;;;;;3.19;74.29;98973.84;5055166;28;20326;-72
2021/04/23 06:43:22;;;;;;;11.03;6.27;;;;;;;3.43;73.14;98983.78;5060143;28;20586;-71
2021/04/23 06:45:50;;;;;;;7.77;6.97;;;;;;;3.64;71.79;98985.16;5058691;28;20207;-72
2021/04/23 06:48:18;;;;;;;9.13;5.87;;;;;;;3.69;71.05;98991.81;5060222;28;20714;-72
2021/04/23 06:50:47;;;;;;;11.10;6.30;;;;;;;3.61;71.91;98992.28;5058671;28;20746;-72
2021/04/23 06:53:14;;;;;;;8.23;5.67;;;;;;;3.75;72.33;98988.81;5058638;28;20372;-70
2021/04/23 06:55:43;;;;;;;12.57;7.30;;;;;;;3.76;71.33;98990.50;5060209;28;20195;-70
2021/04/23 06:58:10;;;;;;;11.30;6.20;;;;;;;4.27;68.71;98999.53;5056081;28;20496;-70
2021/04/23 07:00:38;;;;;;;10.27;6.40;;;;;;;4.30;70.94;98990.63;5058774;28;20215;-71
2021/04/23 07:03:07;;;;;;;11.37;6.07;;;;;;;4.50;67.76;98991.97;5061083;28;20628;-71
2021/04/23 07:05:35;;;;;;;10.10;6.40;;;;;;;4.73;66.27;98994.84;5060055;28;20648;-70
2021/04/23 07:08:03;;;;;;;12.17;6.03;;;;;;;4.83;66.32;98995.94;5059574;28;20208;-70
2021/04/23 07:10:31;;;;;;;7.20;6.13;;;;;;;5.02;65.67;98987.66;5059583;28;20239;-72
2021/04/23 07:12:58;;;;;;;8.23;6.47;;;;;;;5.11;66.43;98980.06;5060025;28;20322;-72
2021/04/23 07:15:29;;;;;;;13.17;6.23;;;;;;;5.21;64.93;98981.97;5059788;28;20483;-70
2021/04/23 07:17:56;;;;;;;9.23;6.40;;;;;;;5.25;65.18;98979.97;5058344;28;20642;-71
2021/04/23 07:20:36;;;;;;;8.20;6.23;;;;;;;5.50;64.28;98994.03;5059609;28;20252;-70
2021/04/23 07:23:05;;;;;;;7.83;6.63;;;;;;;5.71;63.14;98986.44;5054946;28;21412;-71
2021/04/23 07:25:36;;;;;;;8.63;6.33;;;;;;;5.91;62.11;98992.91;5063242;28;20207;-71
2021/04/23 07:28:08;;;;;;;9.77;5.97;;;;;;;6.07;60.41;98990.03;5060269;28;20211;-71
2021/04/23 07:30:37;;;;;;;8.30;5.83;;;;;;;6.10;61.53;98982.88;5062521;28;20238;-69
2021/04/23 07:33:06;;;;;;;9.47;5.97;;;;;;;6.16;59.33;98990.31;5062755;28;20214;-70
2021/04/23 07:35:33;;;;;;;9.07;6.03;;;;;;;6.08;59.50;98988.28;5059880;28;20206;-71
2021/04/23 07:38:01;;;;;;;9.10;5.73;;;;;;;6.22;60.97;98993.38;5060830;28;20203;-71
2021/04/23 07:40:30;;;;;;;9.70;6.30;;;;;;;6.40;59.71;98995.59;5062064;28;20577;-71
2021/04/23 07:42:59;;;;;;;7.30;6.50;;;;;;;6.41;59.10;98994.63;5061825;28;20294;-71
2021/04/23 07:45:37;;;;;;;13.77;6.20;;;;;;;6.77;59.09;98981.50;5060456;28;20263;-70
2021/04/23 07:48:06;;;;;;;7.13;5.03;;;;;;;6.88;55.20;98978.88;5063093;28;20206;-71
2021/04/23 07:50:34;;;;;;;8.70;5.00;;;;;;;6.96;54.39;98983.59;5063500;28;20203;-71
2021/04/23 07:53:01;;;;;;;9.10;5.73;;;;;;;6.89;55.31;98980.56;5060807;28;20239;-71
2021/04/23 07:55:30;;;;;;;8.43;6.13;;;;;;;7.04;55.03;98988.28;5060122;28;20314;-71
2021/04/23 07:57:58;;;;;;;9.40;5.67;;;;;;;7.14;55.29;98981.34;5062108;28;20548;-71
2021/04/23 08:00:26;;;;;;;9.03;5.53;;;;;;;7.45;53.55;98984.25;5058713;28;20258;-70
2021/04/23 08:02:54;;;;;;;9.63;5.67;;;;;;;7.52;52.61;98982.81;5061392;28;20210;-71
2021/04/23 08:05:25;;;;;;;12.93;6.17;;;;;;;7.46;53.95;98983.28;5063155;28;20843;-72
2021/04/23 08:08:01;;;;;;;8.17;5.70;;;;;;;7.36;53.43;98983.16;5063447;28;20453;-72
2021/04/23 08:10:30;;;;;;;8.33;5.53;;;;;;;7.47;54.23;98981.47;5058436;28;20586;-73
2021/04/23 08:12:57;;;;;;;13.80;6.37;;;;;;;7.47;54.86;98984.09;5061432;28;20213;-72
2021/04/23 08:15:24;;;;;;;13.97;7.10;;;;;;;7.69;53.45;98977.97;5062180;28;20214;-72
2021/04/23 08:17:52;;;;;;;6.23;4.93;;;;;;;7.87;52.25;98986.25;5059445;28;20264;-72
2021/04/23 08:20:20;;;;;;;9.13;5.90;;;;;;;8.02;52.11;98981.53;5059450;28;20726;-72
2021/04/23 08:22:47;;;;;;;10.47;6.00;;;;;;;8.20;53.07;98983.66;5061767;28;20328;-72
2021/04/23 08:25:16;;;;;;;7.60;5.63;;;;;;;8.24;51.13;98977.19;5062018;28;20572;-72
2021/04/23 08:27:45;;;;;;;11.70;6.10;;;;;;;8.42;50.73;98980.13;5061839;28;20674;-72
2021/04/23 08:30:13;;;;;;;9.77;5.73;;;;;;;8.37;51.80;98984.94;5063332;28;20215;-72
2021/04/23 08:32:40;;;;;;;9.93;5.60;;;;;;;8.35;50.52;98985.06;5062495;28;20227;-72
2021/04/23 08:35:10;;;;;;;11.03;5.53;;;;;;;8.33;50.46;98980.84;5055094;28;20235;-70
2021/04/23 08:37:38;;;;;;;8.60;5.53;;;;;;;8.64;50.75;98987.13;5058911;28;20209;-71
2021/04/23 08:40:07;;;;;;;10.77;5.57;;;;;;;8.80;49.53;98980.56;5060249;28;20344;-71
2021/04/23 08:42:34;;;;;;;8.40;5.30;;;;;;;8.74;49.21;98981.09;5059767;28;20236;-70
2021/04/23 08:45:22;;;;;;;12.33;5.80;;;;;;;8.88;50.93;98979.94;5061901;28;20652;-72
2021/04/23 08:47:58;;;;;;;11.90;6.47;;;;;;;8.99;48.37;98979.84;5060295;28;20199;-70
2021/04/23 08:50:26;;;;;;;9.37;6.30;;;;;;;8.88;47.23;98980.75;5059459;28;20803;-71
2021/04/23 08:52:54;;;;;;;9.30;6.70;;;;;;;8.80;46.92;98984.06;5059835;28;20683;-72
2021/04/23 08:55:22;;;;;;;9.23;6.07;;;;;;;9.03;46.52;98983.09;5062285;28;20207;-71
2021/04/23 08:58:08;;;;;;;6.33;5.50;;;;;;;9.22;47.64;98983.19;5060667;28;20568;-72
2021/04/23 09:00:36;;;;;;;8.13;5.63;;;;;;;9.08;46.88;98979.06;5060327;28;20226;-72
2021/04/23 09:03:03;;;;;;;11.37;6.07;;;;;;;9.01;47.36;98979.75;5063560;28;20234;-71
2021/04/23 09:05:32;;;;;;;8.83;6.33;;;;;;;9.03;46.98;98983.09;5060104;28;20207;-70
2021/04/23 09:08:00;;;;;;;10.47;6.30;;;;;;;8.94;46.81;98990.84;5056241;28;20210;-71
2021/04/23 09:10:28;;;;;;;8.73;6.17;;;;;;;9.28;46.13;98987.13;5060456;28;20203;-71
2021/04/23 09:13:06;;;;;;;7.53;6.10;;;;;;;9.25;46.23;98982.09;5061335;28;20199;-72
2021/04/23 09:15:34;;;;;;;7.87;6.13;;;;;;;9.04;45.62;98980.28;5059993;28;20214;-71
2021/04/23 09:18:10;;;;;;;11.40;6.50;;;;;;;9.20;45.89;98979.00;5060883;28;20935;-71
2021/04/23 09:20:39;;;;;;;9.80;6.40;;;;;;;9.29;46.69;98982.69;5058700;28;20339;-70
2021/04/23 09:23:12;;;;;;;10.37;6.47;;;;;;;9.60;45.77;98978.22;5060160;28;20207;-71
2021/04/23 09:25:44;;;;;;;9.13;6.20;;;;;;;9.59;45.32;98978.34;5056721;28;20203;-70
2021/04/23 09:28:11;;;;;;;6.83;5.27;;;;;;;9.68;45.64;98980.22;5060162;28;20242;-72
2021/04/23 09:30:38;;;;;;;7.23;6.10;;;;;;;9.73;45.92;98978.00;5062973;28;20210;-73
2021/04/23 09:33:25;;;;;;;10.23;5.80;;;;;;;9.81;46.09;98972.00;5059104;28;20248;-72
2021/04/23 09:35:54;;;;;;;8.73;6.37;;;;;;;9.97;44.82;98971.50;5060527;28;20202;-72
2021/04/23 09:38:21;;;;;;;13.67;6.30;;;;;;;9.87;44.27;98978.59;5060963;28;20252;-71
2021/04/23 09:40:48;;;;;;;11.17;6.20;;;;;;;9.91;44.53;98972.03;5060644;28;20227;-71
2021/04/23 09:43:15;;;;;;;8.63;5.73;;;;;;;10.01;43.82;98974.72;5058786;28;20654;-71
2021/04/23 09:45:50;;;;;;;12.30;6.53;;;;;;;10.01;43.95;98972.06;5056623;28;20214;-70
2021/04/23 09:48:21;;;;;;;9.77;5.73;;;;;;;9.98;44.24;98968.72;5057981;28;20321;-72
2021/04/23 09:50:50;;;;;;;8.43;5.93;;;;;;;9.82;43.74;98968.38;5059764;28;20265;-72
2021/04/23 09:53:17;;;;;;;8.07;5.47;;;;;;;9.98;42.94;98967.88;5058269;28;20207;-72
2021/04/23 09:55:44;;;;;;;6.70;6.10;;;;;;;10.13;43.96;98965.66;5059811;28;20230;-71
2021/04/23 09:58:15;;;;;;;8.87;5.97;;;;;;;10.20;43.64;98958.00;5059924;28;20291;-71
2021/04/23 10:00:44;;;;;;;9.63;5.53;;;;;;;10.31;40.73;98959.72;5057505;28;20736;-71
2021/04/23 10:03:11;;;;;;;7.57;4.97;;;;;;;10.11;41.31;98965.81;5057150;28;20218;-73
2021/04/23 10:05:40;;;;;;;6.53;5.90;;;;;;;10.21;40.33;98965.81;5059621;28;20252;-72
2021/04/23 10:08:10;;;;;;;6.50;5.90;;;;;;;10.42;41.15;98960.44;5057959;28;20202;-73
2021/04/23 10:10:38;;;;;;;9.93;5.93;;;;;;;10.37;42.06;98962.63;5051740;28;20683;-72
2021/04/23 10:13:08;;;;;;;9.53;5.80;;;;;;;10.22;41.99;98956.88;5057150;28;20203;-72
2021/04/23 10:15:36;;;;;;;7.90;6.17;;;;;;;10.32;42.00;98961.38;5058977;28;20776;-71
2021/04/23 10:18:05;;;;;;;7.97;5.20;;;;;;;10.44;41.09;98957.63;5060439;28;20297;-71
2021/04/23 10:20:34;;;;;;;10.07;6.17;;;;;;;10.52;40.68;98960.41;5055271;28;20652;-72
2021/04/23 10:23:03;;;;;;;7.20;5.43;;;;;;;10.52;41.87;98959.59;5056382;28;20218;-71
2021/04/23 10:25:32;;;;;;;8.93;5.93;;;;;;;10.64;41.17;98953.16;5056993;28;20679;-72
2021/04/23 10:28:02;;;;;;;8.07;6.00;;;;;;;10.52;41.02;98954.31;5058032;28;20440;-71
2021/04/23 10:30:31;;;;;;;9.07;5.40;;;;;;;10.55;40.82;98954.03;5053574;28;20631;-73
2021/04/23 10:33:07;;;;;;;9.37;5.23;;;;;;;11.06;40.49;98952.00;5056063;28;20256;-71
2021/04/23 10:35:35;;;;;;;8.23;5.87;;;;;;;11.67;38.91;98944.47;5060115;28;20203;-72
2021/04/23 10:38:03;;;;;;;10.77;5.50;;;;;;;11.74;37.59;98950.03;5058559;28;20196;-72
2021/04/23 10:40:32;;;;;;;8.27;5.50;;;;;;;12.34;38.23;98946.06;5060009;28;20230;-71
2021/04/23 10:43:00;;;;;;;7.43;6.00;;;;;;;12.84;37.25;98938.47;5059967;28;20203;-72
2021/04/23 10:45:38;;;;;;;8.10;6.30;;;;;;;13.44;36.42;98945.69;5061411;28;20247;-72
2021/04/23 10:48:39;;;;;;;8.80;7.00;;;;;;;13.97;34.19;98947.38;5059751;28;20198;-72
2021/04/23 10:51:09;;;;;;;7.87;6.67;;;;;;;13.60;34.80;98946.75;5060012;28;20226;-72
2021/04/23 10:53:43;;;;;;;6.93;5.87;;;;;;;14.12;34.20;98943.06;5057062;28;20199;-72
2021/04/23 10:56:21;;;;;;;8.00;6.10;;;;;;;13.56;35.53;98945.41;5057406;28;20594;-71
2021/04/23 10:58:50;;;;;;;6.13;5.50;;;;;;;13.65;36.40;98947.13;5059538;28;20229;-71
2021/04/23 11:01:31;;;;;;;6.23;5.63;;;;;;;14.00;34.69;98934.53;5063674;28;20623;-71
2021/04/23 11:04:08;;;;;;;6.73;5.87;;;;;;;13.75;35.60;98933.66;5062229;28;20650;-71
2021/04/23 11:06:39;;;;;;;9.97;5.83;;;;;;;14.19;33.49;98935.28;5061532;28;20683;-72
2021/04/23 11:09:23;;;;;;;7.87;5.90;;;;;;;13.31;35.29;98931.97;5058415;28;20575;-71
2021/04/23 11:12:14;;;;;;;7.23;5.40;;;;;;;13.49;35.34;98939.03;5059351;28;20561;-71
2021/04/23 11:14:43;;;;;;;6.10;5.27;;;;;;;13.50;35.00;98938.06;5062323;28;20540;-71
2021/04/23 11:17:34;;;;;;;7.33;6.20;;;;;;;13.34;34.21;98936.13;5058031;28;20210;-71
2021/04/23 11:20:01;;;;;;;6.67;5.87;;;;;;;13.32;34.04;98938.94;5058505;28;20212;-71
2021/04/23 11:22:30;;;;;;;9.33;6.33;;;;;;;12.78;35.91;98928.47;5062871;28;20371;-71
2021/04/23 11:25:02;;;;;;;10.83;6.70;;;;;;;13.34;34.68;98923.66;5058377;28;20206;-71
2021/04/23 11:27:30;;;;;;;8.77;5.63;;;;;;;13.36;35.14;98916.34;5057934;28;20210;-71
2021/04/23 11:30:09;;;;;;;6.87;6.07;;;;;;;13.51;36.98;98926.41;5059362;28;20218;-71
2021/04/23 11:32:38;;;;;;;7.23;6.10;;;;;;;13.52;33.42;98920.09;5058529;28;20226;-72
2021/04/23 11:35:20;;;;;;;7.93;5.73;;;;;;;13.74;35.18;98924.00;5062596;28;20595;-73
2021/04/23 11:37:49;;;;;;;8.00;5.83;;;;;;;14.15;33.33;98923.28;5056684;28;20246;-71
2021/04/23 11:40:18;;;;;;;6.60;5.80;;;;;;;14.03;34.31;98917.41;5060830;28;20611;-71
2021/04/23 11:42:48;;;;;;;6.10;5.43;;;;;;;13.98;33.68;98917.06;5059998;28;20226;-71
2021/04/23 11:45:17;;;;;;;6.80;5.73;;;;;;;14.36;32.62;98922.78;5061416;28;20202;-72